Pittsfield, Illinois
Current Conditions -  °F | °C
As of 2:55 AM on Monday 20 Oct 2014 (Local Time) from KPPQ Reporting Station
Broken Clouds Broken Clouds  
Wind Chill: 55°   Ceiling: 8000
Heat Index: 55°   Visibility: 10mi
Dew Point: 48°   Wind: 9mph
Humidity: 77%   Direction: 230°SW
Pressure: 29.96"   Gusts: NA
Location:  39.61°N, 90.81°W
Report Text: KPPQ 200755Z AUTO 23008KT 10SM SCT065 BKN080 13/09 A2996 RMK AO2 T01260087
Loading
Personal Weather Stations






























Interactive Weather Map
Tropical Storm Tracking
New forecast layout! Learn more

10-Day Weather Forecast

Advertisements
Track Severe Weather on mobile